Terminal Aerodrome Forecast
Issued by NWS

Home | Current Version | Previous Version | Text Only | Print | Product List | Glossary On
Versions: 1 2 3 4 5 6 7 8 9 10 11 12 13 14
197
FTUS41 KBTV 271736 AAA
TAFSLK
TAF AMD
KSLK 271736Z 2718/2818 25008KT P6SM FEW050
     FM280000 VRB03KT P6SM SCT150
     FM280700 00000KT 2SM BR SCT001 BKN006
     FM281300 24004KT P6SM BKN040
     FM281700 28006KT P6SM VCSH BKN040=

USA.gov is the U.S. government's official web portal to all federal, state and local government web resources and services.